W. O. Watson — WDE2805 — position and weather

sailwx.info

Track history (hours):
 
Tides and Currents Weather Stations Pressure Air Temp Water Temp Dewpoint Dewpoint Depression Visibility Wind Speed Wind Dir Waves Ship Positions

W. O. Watson

Owner: Martin Operating Partnership,LP, Vidor, TX. More information available from US FCC via Universal Licensing System and Coast Guard Vessel Documentation Center.

Last reported at 2015-Aug-28 01:27 UTC. Time now 2015-Aug-31 23:54 UTC.
Position N 30°00' W 089°58'.

Length 32 m; draft 2.8 m.

MMSI: 367329860.

Date/timePositionNaut miles runAvg speedWind from/ knotsBaromVisibWave heightAir tempDewpointWater temp
2015-Aug-28 01:27N 30°00' W 089°58'4 4.1
2015-Aug-28 00:28N 29°58' W 090°02'1 0.7
2015-Aug-27 23:33N 29°57' W 090°02'0 0.3
2015-Aug-27 22:33N 29°57' W 090°02'0 0.0
2015-Aug-27 21:32N 29°57' W 090°02'0 0.0
2015-Aug-27 20:32N 29°57' W 090°02'0 0.0
2015-Aug-27 19:29N 29°57' W 090°02'0 0.0
2015-Aug-27 18:32N 29°57' W 090°02'0 0.0
2015-Aug-27 17:31N 29°57' W 090°02'0 0.0
2015-Aug-27 16:33N 29°57' W 090°02'0 0.0
2015-Aug-27 15:33N 29°57' W 090°02'0 0.0
2015-Aug-27 14:33N 29°57' W 090°02'0 0.0
2015-Aug-27 13:33N 29°57' W 090°02'0 0.0
2015-Aug-27 12:33N 29°57' W 090°02'0 0.0
2015-Aug-27 11:33N 29°57' W 090°02'0 0.0
2015-Aug-27 10:32N 29°57' W 090°02'0 0.0
2015-Aug-27 09:32N 29°57' W 090°02'0 0.0
2015-Aug-27 08:31N 29°57' W 090°02'0 0.0
2015-Aug-27 07:33N 29°57' W 090°02'0 0.0
2015-Aug-27 06:19N 29°57' W 090°02'0 0.0
2015-Aug-27 05:24N 29°57' W 090°02'2 2.6
2015-Aug-27 04:30N 29°55' W 090°04'  
2015-Aug-24 20:12N 29°51' W 090°01'0 0.0
2015-Aug-24 17:30N 29°51' W 090°01'0 0.0
2015-Aug-24 16:10N 29°51' W 090°01'0 0.0
2015-Aug-24 15:22N 29°51' W 090°01'0 0.0
2015-Aug-24 14:30N 29°51' W 090°01'1 1.3
2015-Aug-24 13:28N 29°50' W 090°02'0 0.0
2015-Aug-24 12:30N 29°50' W 090°02'0 0.0
2015-Aug-24 11:33N 29°50' W 090°02'0 0.0
2015-Aug-24 10:26N 29°50' W 090°02'0 0.0
2015-Aug-24 09:30N 29°50' W 090°02'1 1.4
2015-Aug-24 08:27N 29°50' W 090°04'28 3.1
2015-Aug-23 23:26N 29°34' W 090°30'3 3.8
2015-Aug-23 22:33N 29°34' W 090°34'3 3.4
2015-Aug-23 21:33N 29°35' W 090°38'3 3.5
2015-Aug-23 20:33N 29°36' W 090°41'2 2.4
2015-Aug-23 19:33N 29°35' W 090°43'1 1.0
2015-Aug-23 18:33N 29°34' W 090°44'3 3.2
2015-Aug-23 17:34N 29°32' W 090°47'5 4.6
2015-Aug-23 16:27N 29°32' W 090°53'5 4.6
2015-Aug-23 15:22N 29°35' W 090°58'  
2015-Aug-20 03:32N 29°30' W 094°52'6 5.9
2015-Aug-20 02:33N 29°35' W 094°56'6 5.9
2015-Aug-20 01:33N 29°40' W 094°59'5 5.4
2015-Aug-20 00:33N 29°44' W 095°03'4 3.6
2015-Aug-19 23:33N 29°46' W 095°06'0 0.1
2015-Aug-19 19:29N 29°46' W 095°06'3 2.4
2015-Aug-19 18:23N 29°44' W 095°08'3 1.4
2015-Aug-19 16:33N 29°45' W 095°11'0 0.3
2015-Aug-19 15:32N 29°45' W 095°10'4 3.5
2015-Aug-19 14:30N 29°45' W 095°06'4 4.0
2015-Aug-19 13:33N 29°44' W 095°02'7 6.7
2015-Aug-19 12:33N 29°38' W 094°58'7 7.1
2015-Aug-19 11:33N 29°32' W 094°54'7 7.2
2015-Aug-19 10:32N 29°26' W 094°50'  
Track history (hours):
 
Tides and Currents Weather Stations Pressure Air Temp Water Temp Dewpoint Dewpoint Depression Visibility Wind Speed Wind Dir Waves Ship Positions

W. O. Watson

Owner: Martin Operating Partnership,LP, Vidor, TX. More information available from US FCC via Universal Licensing System and Coast Guard Vessel Documentation Center.

Last reported at 2015-Aug-28 01:27 UTC. Time now 2015-Aug-31 23:54 UTC.
Position N 30°00' W 089°58'.

Length 32 m; draft 2.8 m.

MMSI: 367329860.

Date/timePositionNaut miles runAvg speedWind from/ knotsBaromVisibWave heightAir tempDewpointWater temp
2015-Aug-28 01:27N 30°00' W 089°58'4 4.1
2015-Aug-28 00:28N 29°58' W 090°02'1 0.7
2015-Aug-27 23:33N 29°57' W 090°02'0 0.3
2015-Aug-27 22:33N 29°57' W 090°02'0 0.0
2015-Aug-27 21:32N 29°57' W 090°02'0 0.0
2015-Aug-27 20:32N 29°57' W 090°02'0 0.0
2015-Aug-27 19:29N 29°57' W 090°02'0 0.0
2015-Aug-27 18:32N 29°57' W 090°02'0 0.0
2015-Aug-27 17:31N 29°57' W 090°02'0 0.0
2015-Aug-27 16:33N 29°57' W 090°02'0 0.0
2015-Aug-27 15:33N 29°57' W 090°02'0 0.0
2015-Aug-27 14:33N 29°57' W 090°02'0 0.0
2015-Aug-27 13:33N 29°57' W 090°02'0 0.0
2015-Aug-27 12:33N 29°57' W 090°02'0 0.0
2015-Aug-27 11:33N 29°57' W 090°02'0 0.0
2015-Aug-27 10:32N 29°57' W 090°02'0 0.0
2015-Aug-27 09:32N 29°57' W 090°02'0 0.0
2015-Aug-27 08:31N 29°57' W 090°02'0 0.0
2015-Aug-27 07:33N 29°57' W 090°02'0 0.0
2015-Aug-27 06:19N 29°57' W 090°02'0 0.0
2015-Aug-27 05:24N 29°57' W 090°02'2 2.6
2015-Aug-27 04:30N 29°55' W 090°04'  
2015-Aug-24 20:12N 29°51' W 090°01'0 0.0
2015-Aug-24 17:30N 29°51' W 090°01'0 0.0
2015-Aug-24 16:10N 29°51' W 090°01'0 0.0
2015-Aug-24 15:22N 29°51' W 090°01'0 0.0
2015-Aug-24 14:30N 29°51' W 090°01'1 1.3
2015-Aug-24 13:28N 29°50' W 090°02'0 0.0
2015-Aug-24 12:30N 29°50' W 090°02'0 0.0
2015-Aug-24 11:33N 29°50' W 090°02'0 0.0
2015-Aug-24 10:26N 29°50' W 090°02'0 0.0
2015-Aug-24 09:30N 29°50' W 090°02'1 1.4
2015-Aug-24 08:27N 29°50' W 090°04'28 3.1
2015-Aug-23 23:26N 29°34' W 090°30'3 3.8
2015-Aug-23 22:33N 29°34' W 090°34'3 3.4
2015-Aug-23 21:33N 29°35' W 090°38'3 3.5
2015-Aug-23 20:33N 29°36' W 090°41'2 2.4
2015-Aug-23 19:33N 29°35' W 090°43'1 1.0
2015-Aug-23 18:33N 29°34' W 090°44'3 3.2
2015-Aug-23 17:34N 29°32' W 090°47'5 4.6
2015-Aug-23 16:27N 29°32' W 090°53'5 4.6
2015-Aug-23 15:22N 29°35' W 090°58'  
2015-Aug-20 03:32N 29°30' W 094°52'6 5.9
2015-Aug-20 02:33N 29°35' W 094°56'6 5.9
2015-Aug-20 01:33N 29°40' W 094°59'5 5.4
2015-Aug-20 00:33N 29°44' W 095°03'4 3.6
2015-Aug-19 23:33N 29°46' W 095°06'0 0.1
2015-Aug-19 19:29N 29°46' W 095°06'3 2.4
2015-Aug-19 18:23N 29°44' W 095°08'3 1.4
2015-Aug-19 16:33N 29°45' W 095°11'0 0.3
2015-Aug-19 15:32N 29°45' W 095°10'4 3.5
2015-Aug-19 14:30N 29°45' W 095°06'4 4.0
2015-Aug-19 13:33N 29°44' W 095°02'7 6.7
2015-Aug-19 12:33N 29°38' W 094°58'7 7.1
2015-Aug-19 11:33N 29°32' W 094°54'7 7.2
2015-Aug-19 10:32N 29°26' W 094°50'  

Dump ship's entire track history